sensor_id;sensor_type;location;lat;lon;timestamp;P1;durP1;ratioP1;P2;durP2;ratioP2
81936;SDS011;71432;56.558;9.036;2023-10-31T00:00:15;6.47;;;2.50;;
81936;SDS011;71432;56.558;9.036;2023-10-31T00:02:41;6.65;;;2.40;;
81936;SDS011;71432;56.558;9.036;2023-10-31T00:05:06;5.43;;;2.23;;
81936;SDS011;71432;56.558;9.036;2023-10-31T00:07:31;6.60;;;2.85;;
81936;SDS011;71432;56.558;9.036;2023-10-31T00:09:57;6.78;;;2.33;;
81936;SDS011;71432;56.558;9.036;2023-10-31T00:12:22;6.15;;;2.63;;
81936;SDS011;71432;56.558;9.036;2023-10-31T00:14:47;6.90;;;2.80;;
81936;SDS011;71432;56.558;9.036;2023-10-31T00:17:13;5.38;;;2.25;;
81936;SDS011;71432;56.558;9.036;2023-10-31T00:19:38;4.73;;;2.07;;
81936;SDS011;71432;56.558;9.036;2023-10-31T00:22:03;5.78;;;2.85;;
81936;SDS011;71432;56.558;9.036;2023-10-31T00:26:57;4.80;;;1.70;;
81936;SDS011;71432;56.558;9.036;2023-10-31T00:29:22;3.53;;;1.95;;
81936;SDS011;71432;56.558;9.036;2023-10-31T00:31:47;6.47;;;2.07;;
81936;SDS011;71432;56.558;9.036;2023-10-31T00:34:12;3.53;;;2.20;;
81936;SDS011;71432;56.558;9.036;2023-10-31T00:36:38;4.50;;;1.80;;
81936;SDS011;71432;56.558;9.036;2023-10-31T00:39:03;4.40;;;2.00;;
81936;SDS011;71432;56.558;9.036;2023-10-31T00:41:28;6.63;;;1.80;;
81936;SDS011;71432;56.558;9.036;2023-10-31T00:43:55;4.05;;;1.85;;
81936;SDS011;71432;56.558;9.036;2023-10-31T00:46:20;3.83;;;1.60;;
81936;SDS011;71432;56.558;9.036;2023-10-31T00:48:46;6.68;;;2.17;;
81936;SDS011;71432;56.558;9.036;2023-10-31T00:51:12;5.80;;;1.85;;
81936;SDS011;71432;56.558;9.036;2023-10-31T00:53:37;7.22;;;2.13;;
81936;SDS011;71432;56.558;9.036;2023-10-31T00:56:02;4.43;;;1.50;;
81936;SDS011;71432;56.558;9.036;2023-10-31T00:58:29;4.43;;;1.65;;
81936;SDS011;71432;56.558;9.036;2023-10-31T01:00:54;5.88;;;2.35;;
81936;SDS011;71432;56.558;9.036;2023-10-31T01:03:19;4.80;;;1.98;;
81936;SDS011;71432;56.558;9.036;2023-10-31T01:05:45;4.70;;;1.77;;
81936;SDS011;71432;56.558;9.036;2023-10-31T01:08:10;3.90;;;1.90;;
81936;SDS011;71432;56.558;9.036;2023-10-31T01:10:36;4.35;;;1.58;;
81936;SDS011;71432;56.558;9.036;2023-10-31T01:13:01;4.30;;;1.83;;
81936;SDS011;71432;56.558;9.036;2023-10-31T01:15:26;5.40;;;1.88;;
81936;SDS011;71432;56.558;9.036;2023-10-31T01:17:51;4.57;;;1.27;;
81936;SDS011;71432;56.558;9.036;2023-10-31T01:20:17;5.80;;;2.00;;
81936;SDS011;71432;56.558;9.036;2023-10-31T01:22:42;3.90;;;1.63;;
81936;SDS011;71432;56.558;9.036;2023-10-31T01:25:08;5.22;;;1.35;;
81936;SDS011;71432;56.558;9.036;2023-10-31T01:27:33;3.03;;;1.23;;
81936;SDS011;71432;56.558;9.036;2023-10-31T01:29:58;2.47;;;1.03;;
81936;SDS011;71432;56.558;9.036;2023-10-31T01:32:24;4.38;;;1.75;;
81936;SDS011;71432;56.558;9.036;2023-10-31T01:34:49;3.55;;;1.20;;
81936;SDS011;71432;56.558;9.036;2023-10-31T01:37:14;4.72;;;1.40;;
81936;SDS011;71432;56.558;9.036;2023-10-31T01:39:40;4.50;;;1.75;;
81936;SDS011;71432;56.558;9.036;2023-10-31T01:42:05;4.07;;;1.67;;
81936;SDS011;71432;56.558;9.036;2023-10-31T01:44:31;3.60;;;1.33;;
81936;SDS011;71432;56.558;9.036;2023-10-31T01:46:56;2.45;;;1.20;;
81936;SDS011;71432;56.558;9.036;2023-10-31T01:49:22;3.45;;;1.38;;
81936;SDS011;71432;56.558;9.036;2023-10-31T01:51:47;3.17;;;1.30;;
81936;SDS011;71432;56.558;9.036;2023-10-31T01:54:13;4.07;;;1.10;;
81936;SDS011;71432;56.558;9.036;2023-10-31T01:56:39;3.15;;;1.35;;
81936;SDS011;71432;56.558;9.036;2023-10-31T01:59:05;3.30;;;1.20;;
81936;SDS011;71432;56.558;9.036;2023-10-31T02:01:31;2.03;;;0.87;;
81936;SDS011;71432;56.558;9.036;2023-10-31T02:03:57;2.42;;;1.15;;
81936;SDS011;71432;56.558;9.036;2023-10-31T02:06:23;3.25;;;1.02;;
81936;SDS011;71432;56.558;9.036;2023-10-31T02:08:49;3.22;;;1.45;;
81936;SDS011;71432;56.558;9.036;2023-10-31T02:11:15;2.92;;;1.17;;
81936;SDS011;71432;56.558;9.036;2023-10-31T02:13:40;4.93;;;1.40;;
81936;SDS011;71432;56.558;9.036;2023-10-31T02:16:05;2.97;;;1.60;;
81936;SDS011;71432;56.558;9.036;2023-10-31T02:18:31;4.65;;;1.05;;
81936;SDS011;71432;56.558;9.036;2023-10-31T02:20:57;3.15;;;1.00;;
81936;SDS011;71432;56.558;9.036;2023-10-31T02:23:23;2.00;;;0.82;;
81936;SDS011;71432;56.558;9.036;2023-10-31T02:25:48;2.43;;;0.93;;
81936;SDS011;71432;56.558;9.036;2023-10-31T02:28:13;2.03;;;0.75;;
81936;SDS011;71432;56.558;9.036;2023-10-31T02:30:40;3.00;;;0.90;;
81936;SDS011;71432;56.558;9.036;2023-10-31T02:33:06;1.90;;;0.90;;
81936;SDS011;71432;56.558;9.036;2023-10-31T02:35:31;2.40;;;0.70;;
81936;SDS011;71432;56.558;9.036;2023-10-31T02:37:57;1.83;;;0.85;;
81936;SDS011;71432;56.558;9.036;2023-10-31T02:40:22;1.30;;;0.63;;
81936;SDS011;71432;56.558;9.036;2023-10-31T02:42:48;2.67;;;1.10;;
81936;SDS011;71432;56.558;9.036;2023-10-31T02:45:13;2.67;;;0.90;;
81936;SDS011;71432;56.558;9.036;2023-10-31T02:47:38;3.55;;;1.05;;
81936;SDS011;71432;56.558;9.036;2023-10-31T02:50:04;2.78;;;0.75;;
81936;SDS011;71432;56.558;9.036;2023-10-31T02:52:30;1.88;;;0.80;;
81936;SDS011;71432;56.558;9.036;2023-10-31T02:54:56;1.88;;;0.65;;
81936;SDS011;71432;56.558;9.036;2023-10-31T02:57:21;3.30;;;0.95;;
81936;SDS011;71432;56.558;9.036;2023-10-31T02:59:47;1.80;;;0.73;;
81936;SDS011;71432;56.558;9.036;2023-10-31T03:02:12;3.90;;;0.85;;
81936;SDS011;71432;56.558;9.036;2023-10-31T03:04:37;1.70;;;0.80;;
81936;SDS011;71432;56.558;9.036;2023-10-31T03:07:03;2.08;;;0.70;;
81936;SDS011;71432;56.558;9.036;2023-10-31T03:09:28;1.83;;;0.75;;
81936;SDS011;71432;56.558;9.036;2023-10-31T03:11:54;2.08;;;0.73;;
81936;SDS011;71432;56.558;9.036;2023-10-31T03:14:19;1.87;;;0.73;;
81936;SDS011;71432;56.558;9.036;2023-10-31T03:16:44;2.30;;;0.80;;
81936;SDS011;71432;56.558;9.036;2023-10-31T03:19:10;1.80;;;0.60;;
81936;SDS011;71432;56.558;9.036;2023-10-31T03:21:35;3.33;;;1.00;;
81936;SDS011;71432;56.558;9.036;2023-10-31T03:24:01;3.33;;;1.10;;
81936;SDS011;71432;56.558;9.036;2023-10-31T03:26:26;1.67;;;0.65;;
81936;SDS011;71432;56.558;9.036;2023-10-31T03:28:51;2.28;;;0.60;;
81936;SDS011;71432;56.558;9.036;2023-10-31T03:31:21;1.88;;;0.85;;
81936;SDS011;71432;56.558;9.036;2023-10-31T03:33:47;2.67;;;1.33;;
81936;SDS011;71432;56.558;9.036;2023-10-31T03:36:12;3.50;;;0.80;;
81936;SDS011;71432;56.558;9.036;2023-10-31T03:38:38;1.40;;;0.50;;
81936;SDS011;71432;56.558;9.036;2023-10-31T03:41:03;1.43;;;0.43;;
81936;SDS011;71432;56.558;9.036;2023-10-31T03:43:28;1.77;;;0.55;;
81936;SDS011;71432;56.558;9.036;2023-10-31T03:45:54;1.17;;;0.60;;
81936;SDS011;71432;56.558;9.036;2023-10-31T03:48:20;1.92;;;0.47;;
81936;SDS011;71432;56.558;9.036;2023-10-31T03:50:45;2.10;;;0.70;;
81936;SDS011;71432;56.558;9.036;2023-10-31T03:53:11;2.08;;;0.63;;
81936;SDS011;71432;56.558;9.036;2023-10-31T03:55:36;1.73;;;0.60;;
81936;SDS011;71432;56.558;9.036;2023-10-31T03:58:01;0.93;;;0.50;;
81936;SDS011;71432;56.558;9.036;2023-10-31T04:00:27;1.98;;;0.50;;
81936;SDS011;71432;56.558;9.036;2023-10-31T04:02:53;1.10;;;0.47;;
81936;SDS011;71432;56.558;9.036;2023-10-31T04:05:18;0.65;;;0.40;;
81936;SDS011;71432;56.558;9.036;2023-10-31T04:07:43;2.88;;;0.63;;
81936;SDS011;71432;56.558;9.036;2023-10-31T04:10:09;2.95;;;0.60;;
81936;SDS011;71432;56.558;9.036;2023-10-31T04:12:35;1.38;;;0.55;;
81936;SDS011;71432;56.558;9.036;2023-10-31T04:15:00;2.75;;;0.85;;
81936;SDS011;71432;56.558;9.036;2023-10-31T04:17:26;3.60;;;0.70;;
81936;SDS011;71432;56.558;9.036;2023-10-31T04:19:51;1.73;;;0.67;;
81936;SDS011;71432;56.558;9.036;2023-10-31T04:22:17;1.35;;;0.45;;
81936;SDS011;71432;56.558;9.036;2023-10-31T04:24:42;2.30;;;0.52;;
81936;SDS011;71432;56.558;9.036;2023-10-31T04:27:08;1.88;;;0.60;;
81936;SDS011;71432;56.558;9.036;2023-10-31T04:29:34;1.48;;;0.50;;
81936;SDS011;71432;56.558;9.036;2023-10-31T04:31:59;1.73;;;0.45;;
81936;SDS011;71432;56.558;9.036;2023-10-31T04:34:24;1.13;;;0.40;;
81936;SDS011;71432;56.558;9.036;2023-10-31T04:36:50;2.53;;;0.63;;
81936;SDS011;71432;56.558;9.036;2023-10-31T04:39:15;2.05;;;0.60;;
81936;SDS011;71432;56.558;9.036;2023-10-31T04:41:40;1.77;;;0.60;;
81936;SDS011;71432;56.558;9.036;2023-10-31T04:44:06;2.00;;;0.45;;
81936;SDS011;71432;56.558;9.036;2023-10-31T04:46:31;1.55;;;0.60;;
81936;SDS011;71432;56.558;9.036;2023-10-31T04:48:57;1.10;;;0.43;;
81936;SDS011;71432;56.558;9.036;2023-10-31T04:51:22;2.10;;;0.70;;
81936;SDS011;71432;56.558;9.036;2023-10-31T04:53:47;1.80;;;0.40;;
81936;SDS011;71432;56.558;9.036;2023-10-31T04:56:13;2.23;;;0.50;;
81936;SDS011;71432;56.558;9.036;2023-10-31T04:58:43;1.20;;;0.30;;
81936;SDS011;71432;56.558;9.036;2023-10-31T05:01:09;1.52;;;0.40;;
81936;SDS011;71432;56.558;9.036;2023-10-31T05:03:37;0.70;;;0.50;;
81936;SDS011;71432;56.558;9.036;2023-10-31T05:06:03;0.90;;;0.30;;
81936;SDS011;71432;56.558;9.036;2023-10-31T05:08:29;1.42;;;0.50;;
81936;SDS011;71432;56.558;9.036;2023-10-31T05:10:55;0.77;;;0.25;;
81936;SDS011;71432;56.558;9.036;2023-10-31T05:13:21;1.30;;;0.60;;
81936;SDS011;71432;56.558;9.036;2023-10-31T05:15:46;1.33;;;0.57;;
81936;SDS011;71432;56.558;9.036;2023-10-31T05:18:11;0.80;;;0.40;;
81936;SDS011;71432;56.558;9.036;2023-10-31T05:20:37;2.47;;;0.30;;
81936;SDS011;71432;56.558;9.036;2023-10-31T05:23:02;1.53;;;0.30;;
81936;SDS011;71432;56.558;9.036;2023-10-31T05:25:27;1.35;;;0.50;;
81936;SDS011;71432;56.558;9.036;2023-10-31T05:27:53;0.55;;;0.10;;
81936;SDS011;71432;56.558;9.036;2023-10-31T05:30:18;1.15;;;0.35;;
81936;SDS011;71432;56.558;9.036;2023-10-31T05:32:44;1.27;;;0.70;;
81936;SDS011;71432;56.558;9.036;2023-10-31T05:35:09;2.40;;;0.60;;
81936;SDS011;71432;56.558;9.036;2023-10-31T05:37:35;1.90;;;0.47;;
81936;SDS011;71432;56.558;9.036;2023-10-31T05:40:01;0.80;;;0.50;;
81936;SDS011;71432;56.558;9.036;2023-10-31T05:42:26;0.82;;;0.43;;
81936;SDS011;71432;56.558;9.036;2023-10-31T05:44:52;0.93;;;0.50;;
81936;SDS011;71432;56.558;9.036;2023-10-31T05:49:44;2.10;;;0.90;;
81936;SDS011;71432;56.558;9.036;2023-10-31T05:52:09;6.15;;;0.77;;
81936;SDS011;71432;56.558;9.036;2023-10-31T05:54:35;3.08;;;0.90;;
81936;SDS011;71432;56.558;9.036;2023-10-31T05:57:00;6.47;;;1.13;;
81936;SDS011;71432;56.558;9.036;2023-10-31T05:59:25;1.85;;;0.65;;
81936;SDS011;71432;56.558;9.036;2023-10-31T06:01:51;7.05;;;1.10;;
81936;SDS011;71432;56.558;9.036;2023-10-31T06:04:16;5.03;;;0.60;;
81936;SDS011;71432;56.558;9.036;2023-10-31T06:06:42;228.60;;;57.70;;
81936;SDS011;71432;56.558;9.036;2023-10-31T06:09:07;144.40;;;34.60;;
81936;SDS011;71432;56.558;9.036;2023-10-31T06:11:35;64.47;;;18.95;;
81936;SDS011;71432;56.558;9.036;2023-10-31T06:14:00;48.35;;;13.30;;
81936;SDS011;71432;56.558;9.036;2023-10-31T06:16:26;42.22;;;10.50;;
81936;SDS011;71432;56.558;9.036;2023-10-31T06:18:54;23.58;;;5.90;;
81936;SDS011;71432;56.558;9.036;2023-10-31T06:21:19;23.63;;;6.57;;
81936;SDS011;71432;56.558;9.036;2023-10-31T06:23:45;31.23;;;7.70;;
81936;SDS011;71432;56.558;9.036;2023-10-31T06:26:11;22.73;;;6.32;;
81936;SDS011;71432;56.558;9.036;2023-10-31T06:28:36;25.55;;;7.05;;
81936;SDS011;71432;56.558;9.036;2023-10-31T06:31:02;19.33;;;5.38;;
81936;SDS011;71432;56.558;9.036;2023-10-31T06:33:28;19.38;;;4.88;;
81936;SDS011;71432;56.558;9.036;2023-10-31T06:35:53;18.33;;;4.32;;
81936;SDS011;71432;56.558;9.036;2023-10-31T06:38:19;21.05;;;4.63;;
81936;SDS011;71432;56.558;9.036;2023-10-31T06:40:45;22.63;;;5.07;;
81936;SDS011;71432;56.558;9.036;2023-10-31T06:43:10;18.45;;;5.07;;
81936;SDS011;71432;56.558;9.036;2023-10-31T06:45:35;15.20;;;4.50;;
81936;SDS011;71432;56.558;9.036;2023-10-31T06:48:01;24.85;;;5.18;;
81936;SDS011;71432;56.558;9.036;2023-10-31T06:50:27;17.40;;;4.40;;
81936;SDS011;71432;56.558;9.036;2023-10-31T06:52:53;21.05;;;4.85;;
81936;SDS011;71432;56.558;9.036;2023-10-31T06:55:19;17.30;;;4.43;;
81936;SDS011;71432;56.558;9.036;2023-10-31T06:57:44;18.63;;;5.57;;
81936;SDS011;71432;56.558;9.036;2023-10-31T07:00:10;19.00;;;5.05;;
81936;SDS011;71432;56.558;9.036;2023-10-31T07:02:36;18.05;;;4.47;;
81936;SDS011;71432;56.558;9.036;2023-10-31T07:05:02;23.77;;;5.05;;
81936;SDS011;71432;56.558;9.036;2023-10-31T07:07:28;19.25;;;5.03;;
81936;SDS011;71432;56.558;9.036;2023-10-31T07:09:54;24.90;;;6.45;;
81936;SDS011;71432;56.558;9.036;2023-10-31T07:12:19;22.60;;;6.25;;
81936;SDS011;71432;56.558;9.036;2023-10-31T07:14:45;16.75;;;4.88;;
81936;SDS011;71432;56.558;9.036;2023-10-31T07:17:10;21.60;;;4.97;;
81936;SDS011;71432;56.558;9.036;2023-10-31T07:19:35;16.83;;;6.35;;
81936;SDS011;71432;56.558;9.036;2023-10-31T07:22:01;20.77;;;4.87;;
81936;SDS011;71432;56.558;9.036;2023-10-31T07:24:27;19.15;;;4.85;;
81936;SDS011;71432;56.558;9.036;2023-10-31T07:26:53;16.55;;;4.65;;
81936;SDS011;71432;56.558;9.036;2023-10-31T07:29:18;15.48;;;4.80;;
81936;SDS011;71432;56.558;9.036;2023-10-31T07:31:44;22.83;;;4.70;;
81936;SDS011;71432;56.558;9.036;2023-10-31T07:34:09;19.58;;;4.25;;
81936;SDS011;71432;56.558;9.036;2023-10-31T07:36:36;17.10;;;5.15;;
81936;SDS011;71432;56.558;9.036;2023-10-31T07:39:01;18.98;;;4.75;;
81936;SDS011;71432;56.558;9.036;2023-10-31T07:41:28;16.58;;;4.53;;
81936;SDS011;71432;56.558;9.036;2023-10-31T07:43:54;16.83;;;4.50;;
81936;SDS011;71432;56.558;9.036;2023-10-31T07:46:19;14.32;;;3.85;;
81936;SDS011;71432;56.558;9.036;2023-10-31T07:48:45;14.55;;;4.00;;
81936;SDS011;71432;56.558;9.036;2023-10-31T07:51:10;13.90;;;4.33;;
81936;SDS011;71432;56.558;9.036;2023-10-31T07:53:35;12.00;;;4.27;;
81936;SDS011;71432;56.558;9.036;2023-10-31T07:56:00;14.63;;;4.37;;
81936;SDS011;71432;56.558;9.036;2023-10-31T07:58:26;12.32;;;4.35;;
81936;SDS011;71432;56.558;9.036;2023-10-31T08:00:51;14.48;;;4.60;;
81936;SDS011;71432;56.558;9.036;2023-10-31T08:03:16;16.20;;;3.80;;
81936;SDS011;71432;56.558;9.036;2023-10-31T08:05:42;15.83;;;3.93;;
81936;SDS011;71432;56.558;9.036;2023-10-31T08:08:07;16.05;;;4.72;;
81936;SDS011;71432;56.558;9.036;2023-10-31T08:10:33;10.57;;;3.28;;
81936;SDS011;71432;56.558;9.036;2023-10-31T08:12:59;11.80;;;3.25;;
81936;SDS011;71432;56.558;9.036;2023-10-31T08:15:24;12.98;;;3.58;;
81936;SDS011;71432;56.558;9.036;2023-10-31T08:17:50;14.52;;;3.95;;
81936;SDS011;71432;56.558;9.036;2023-10-31T08:20:15;105.18;;;22.63;;
81936;SDS011;71432;56.558;9.036;2023-10-31T08:22:41;59.00;;;16.73;;
81936;SDS011;71432;56.558;9.036;2023-10-31T08:25:07;27.30;;;7.53;;
81936;SDS011;71432;56.558;9.036;2023-10-31T08:27:33;25.55;;;7.13;;
81936;SDS011;71432;56.558;9.036;2023-10-31T08:29:59;17.95;;;6.20;;
81936;SDS011;71432;56.558;9.036;2023-10-31T08:32:24;24.50;;;6.33;;
81936;SDS011;71432;56.558;9.036;2023-10-31T08:34:49;21.50;;;6.53;;
81936;SDS011;71432;56.558;9.036;2023-10-31T08:37:15;19.15;;;5.53;;
81936;SDS011;71432;56.558;9.036;2023-10-31T08:39:40;22.75;;;6.25;;
81936;SDS011;71432;56.558;9.036;2023-10-31T08:42:06;21.38;;;6.53;;
81936;SDS011;71432;56.558;9.036;2023-10-31T08:44:31;20.15;;;6.38;;
81936;SDS011;71432;56.558;9.036;2023-10-31T08:46:58;18.70;;;6.40;;
81936;SDS011;71432;56.558;9.036;2023-10-31T08:49:23;25.55;;;6.82;;
81936;SDS011;71432;56.558;9.036;2023-10-31T08:51:49;22.43;;;5.13;;
81936;SDS011;71432;56.558;9.036;2023-10-31T08:54:14;24.45;;;6.80;;
81936;SDS011;71432;56.558;9.036;2023-10-31T08:56:39;26.27;;;6.97;;
81936;SDS011;71432;56.558;9.036;2023-10-31T08:59:05;20.52;;;6.32;;
81936;SDS011;71432;56.558;9.036;2023-10-31T09:01:30;16.17;;;5.72;;
81936;SDS011;71432;56.558;9.036;2023-10-31T09:03:55;19.00;;;5.40;;
81936;SDS011;71432;56.558;9.036;2023-10-31T09:06:21;19.98;;;5.97;;
81936;SDS011;71432;56.558;9.036;2023-10-31T09:08:46;20.15;;;6.10;;
81936;SDS011;71432;56.558;9.036;2023-10-31T09:11:11;22.23;;;6.43;;
81936;SDS011;71432;56.558;9.036;2023-10-31T09:13:37;14.70;;;5.93;;
81936;SDS011;71432;56.558;9.036;2023-10-31T09:16:02;20.77;;;5.18;;
81936;SDS011;71432;56.558;9.036;2023-10-31T09:18:28;19.73;;;6.00;;
81936;SDS011;71432;56.558;9.036;2023-10-31T09:20:53;16.40;;;4.80;;
81936;SDS011;71432;56.558;9.036;2023-10-31T09:23:18;21.17;;;6.78;;
81936;SDS011;71432;56.558;9.036;2023-10-31T09:25:44;15.20;;;4.82;;
81936;SDS011;71432;56.558;9.036;2023-10-31T09:28:10;14.85;;;4.50;;
81936;SDS011;71432;56.558;9.036;2023-10-31T09:30:35;19.15;;;5.32;;
81936;SDS011;71432;56.558;9.036;2023-10-31T09:33:01;16.15;;;5.20;;
81936;SDS011;71432;56.558;9.036;2023-10-31T09:35:26;19.65;;;5.40;;
81936;SDS011;71432;56.558;9.036;2023-10-31T09:37:52;17.60;;;5.68;;
81936;SDS011;71432;56.558;9.036;2023-10-31T09:40:17;17.63;;;5.15;;
81936;SDS011;71432;56.558;9.036;2023-10-31T09:42:46;19.95;;;6.68;;
81936;SDS011;71432;56.558;9.036;2023-10-31T09:45:12;13.10;;;4.32;;
81936;SDS011;71432;56.558;9.036;2023-10-31T09:47:38;15.85;;;5.13;;
81936;SDS011;71432;56.558;9.036;2023-10-31T09:50:04;15.05;;;4.93;;
81936;SDS011;71432;56.558;9.036;2023-10-31T09:52:30;22.73;;;5.63;;
81936;SDS011;71432;56.558;9.036;2023-10-31T09:54:55;14.95;;;5.10;;
81936;SDS011;71432;56.558;9.036;2023-10-31T09:57:21;15.70;;;5.10;;
81936;SDS011;71432;56.558;9.036;2023-10-31T09:59:46;13.45;;;5.47;;
81936;SDS011;71432;56.558;9.036;2023-10-31T10:02:12;17.08;;;5.30;;
81936;SDS011;71432;56.558;9.036;2023-10-31T10:04:37;17.40;;;5.63;;
81936;SDS011;71432;56.558;9.036;2023-10-31T10:07:03;15.68;;;5.30;;
81936;SDS011;71432;56.558;9.036;2023-10-31T10:09:30;15.18;;;5.60;;
81936;SDS011;71432;56.558;9.036;2023-10-31T10:11:58;14.75;;;5.22;;
81936;SDS011;71432;56.558;9.036;2023-10-31T10:14:25;12.57;;;5.53;;
81936;SDS011;71432;56.558;9.036;2023-10-31T10:16:53;18.90;;;5.40;;
81936;SDS011;71432;56.558;9.036;2023-10-31T10:19:19;16.52;;;5.55;;
81936;SDS011;71432;56.558;9.036;2023-10-31T10:21:49;17.63;;;4.97;;
81936;SDS011;71432;56.558;9.036;2023-10-31T10:24:20;14.43;;;4.68;;
81936;SDS011;71432;56.558;9.036;2023-10-31T10:26:47;13.35;;;4.22;;
81936;SDS011;71432;56.558;9.036;2023-10-31T10:29:13;14.98;;;4.20;;
81936;SDS011;71432;56.558;9.036;2023-10-31T10:31:39;15.20;;;4.75;;
81936;SDS011;71432;56.558;9.036;2023-10-31T10:34:05;17.17;;;4.43;;
81936;SDS011;71432;56.558;9.036;2023-10-31T10:36:32;12.35;;;4.40;;
81936;SDS011;71432;56.558;9.036;2023-10-31T10:38:59;12.05;;;3.60;;
81936;SDS011;71432;56.558;9.036;2023-10-31T10:41:25;10.10;;;3.00;;
81936;SDS011;71432;56.558;9.036;2023-10-31T10:43:55;9.82;;;3.10;;
81936;SDS011;71432;56.558;9.036;2023-10-31T10:46:23;13.52;;;3.10;;
81936;SDS011;71432;56.558;9.036;2023-10-31T10:48:50;11.43;;;3.72;;
81936;SDS011;71432;56.558;9.036;2023-10-31T10:51:24;7.75;;;2.60;;
81936;SDS011;71432;56.558;9.036;2023-10-31T10:53:58;10.88;;;2.55;;
81936;SDS011;71432;56.558;9.036;2023-10-31T10:56:38;9.70;;;3.20;;
81936;SDS011;71432;56.558;9.036;2023-10-31T10:59:08;8.52;;;2.92;;
81936;SDS011;71432;56.558;9.036;2023-10-31T11:01:40;9.82;;;3.03;;
81936;SDS011;71432;56.558;9.036;2023-10-31T11:04:07;7.05;;;2.08;;
81936;SDS011;71432;56.558;9.036;2023-10-31T11:06:33;8.73;;;2.08;;
81936;SDS011;71432;56.558;9.036;2023-10-31T11:09:00;8.20;;;2.65;;
81936;SDS011;71432;56.558;9.036;2023-10-31T11:11:26;9.18;;;3.20;;
81936;SDS011;71432;56.558;9.036;2023-10-31T11:13:52;6.90;;;1.73;;
81936;SDS011;71432;56.558;9.036;2023-10-31T11:16:24;7.20;;;2.13;;
81936;SDS011;71432;56.558;9.036;2023-10-31T11:18:54;8.38;;;2.88;;
81936;SDS011;71432;56.558;9.036;2023-10-31T11:21:22;8.43;;;2.25;;
81936;SDS011;71432;56.558;9.036;2023-10-31T11:23:56;7.35;;;2.78;;
81936;SDS011;71432;56.558;9.036;2023-10-31T11:26:25;7.53;;;2.10;;
81936;SDS011;71432;56.558;9.036;2023-10-31T11:28:51;10.32;;;2.20;;
81936;SDS011;71432;56.558;9.036;2023-10-31T11:31:16;5.90;;;2.40;;
81936;SDS011;71432;56.558;9.036;2023-10-31T11:33:42;8.75;;;2.38;;
81936;SDS011;71432;56.558;9.036;2023-10-31T11:38:36;5.25;;;1.75;;
81936;SDS011;71432;56.558;9.036;2023-10-31T11:41:03;5.95;;;2.38;;
81936;SDS011;71432;56.558;9.036;2023-10-31T11:46:03;9.05;;;3.42;;
81936;SDS011;71432;56.558;9.036;2023-10-31T11:48:48;9.98;;;2.65;;
81936;SDS011;71432;56.558;9.036;2023-10-31T11:51:16;9.40;;;2.58;;
81936;SDS011;71432;56.558;9.036;2023-10-31T11:53:41;7.72;;;2.25;;
81936;SDS011;71432;56.558;9.036;2023-10-31T11:56:09;7.75;;;2.05;;
81936;SDS011;71432;56.558;9.036;2023-10-31T11:58:36;5.63;;;2.65;;
81936;SDS011;71432;56.558;9.036;2023-10-31T12:01:03;6.45;;;2.65;;
81936;SDS011;71432;56.558;9.036;2023-10-31T12:03:36;8.32;;;2.63;;
81936;SDS011;71432;56.558;9.036;2023-10-31T12:06:06;7.28;;;2.22;;
81936;SDS011;71432;56.558;9.036;2023-10-31T12:08:37;4.78;;;2.30;;
81936;SDS011;71432;56.558;9.036;2023-10-31T12:11:08;7.80;;;2.38;;
81936;SDS011;71432;56.558;9.036;2023-10-31T12:13:34;6.95;;;2.05;;
81936;SDS011;71432;56.558;9.036;2023-10-31T12:16:01;6.80;;;2.20;;
81936;SDS011;71432;56.558;9.036;2023-10-31T12:18:27;6.75;;;2.13;;
81936;SDS011;71432;56.558;9.036;2023-10-31T12:20:53;8.40;;;2.42;;
81936;SDS011;71432;56.558;9.036;2023-10-31T12:23:18;7.18;;;2.15;;
81936;SDS011;71432;56.558;9.036;2023-10-31T12:25:50;6.78;;;2.53;;
81936;SDS011;71432;56.558;9.036;2023-10-31T12:28:19;7.47;;;2.13;;
81936;SDS011;71432;56.558;9.036;2023-10-31T12:30:49;5.45;;;1.85;;
81936;SDS011;71432;56.558;9.036;2023-10-31T12:33:24;8.10;;;1.95;;
81936;SDS011;71432;56.558;9.036;2023-10-31T12:36:00;8.23;;;2.20;;
81936;SDS011;71432;56.558;9.036;2023-10-31T12:38:26;5.00;;;2.10;;
81936;SDS011;71432;56.558;9.036;2023-10-31T12:40:53;8.35;;;2.20;;
81936;SDS011;71432;56.558;9.036;2023-10-31T12:43:20;3.85;;;1.77;;
81936;SDS011;71432;56.558;9.036;2023-10-31T12:45:46;5.72;;;1.92;;
81936;SDS011;71432;56.558;9.036;2023-10-31T12:48:12;6.68;;;2.42;;
81936;SDS011;71432;56.558;9.036;2023-10-31T12:50:37;6.70;;;2.50;;
81936;SDS011;71432;56.558;9.036;2023-10-31T12:53:08;7.30;;;2.45;;
81936;SDS011;71432;56.558;9.036;2023-10-31T12:55:40;4.57;;;1.83;;
81936;SDS011;71432;56.558;9.036;2023-10-31T13:00:32;6.78;;;2.20;;
81936;SDS011;71432;56.558;9.036;2023-10-31T13:03:01;5.88;;;2.10;;
81936;SDS011;71432;56.558;9.036;2023-10-31T13:05:27;4.80;;;1.75;;
81936;SDS011;71432;56.558;9.036;2023-10-31T13:07:53;7.63;;;1.77;;
81936;SDS011;71432;56.558;9.036;2023-10-31T13:10:20;5.32;;;2.10;;
81936;SDS011;71432;56.558;9.036;2023-10-31T13:12:47;6.35;;;1.90;;
81936;SDS011;71432;56.558;9.036;2023-10-31T13:15:13;6.15;;;1.88;;
81936;SDS011;71432;56.558;9.036;2023-10-31T13:17:39;4.80;;;1.85;;
81936;SDS011;71432;56.558;9.036;2023-10-31T13:20:07;7.72;;;2.20;;
81936;SDS011;71432;56.558;9.036;2023-10-31T13:22:34;5.93;;;1.60;;
81936;SDS011;71432;56.558;9.036;2023-10-31T13:27:26;6.95;;;2.10;;
81936;SDS011;71432;56.558;9.036;2023-10-31T13:29:52;6.47;;;2.33;;
81936;SDS011;71432;56.558;9.036;2023-10-31T13:32:17;8.30;;;2.10;;
81936;SDS011;71432;56.558;9.036;2023-10-31T13:34:42;4.85;;;1.63;;
81936;SDS011;71432;56.558;9.036;2023-10-31T13:37:08;5.53;;;1.73;;
81936;SDS011;71432;56.558;9.036;2023-10-31T13:39:33;5.85;;;2.33;;
81936;SDS011;71432;56.558;9.036;2023-10-31T13:41:59;6.68;;;2.13;;
81936;SDS011;71432;56.558;9.036;2023-10-31T13:44:24;3.78;;;1.40;;
81936;SDS011;71432;56.558;9.036;2023-10-31T13:46:49;8.27;;;1.83;;
81936;SDS011;71432;56.558;9.036;2023-10-31T13:49:15;6.05;;;1.75;;
81936;SDS011;71432;56.558;9.036;2023-10-31T13:51:40;4.82;;;1.67;;
81936;SDS011;71432;56.558;9.036;2023-10-31T13:54:05;5.10;;;2.15;;
81936;SDS011;71432;56.558;9.036;2023-10-31T13:56:31;5.30;;;1.70;;
81936;SDS011;71432;56.558;9.036;2023-10-31T14:01:22;5.23;;;1.67;;
81936;SDS011;71432;56.558;9.036;2023-10-31T14:03:50;3.92;;;1.15;;
81936;SDS011;71432;56.558;9.036;2023-10-31T14:06:15;2.88;;;1.30;;
81936;SDS011;71432;56.558;9.036;2023-10-31T14:08:41;3.47;;;1.52;;
81936;SDS011;71432;56.558;9.036;2023-10-31T14:11:07;5.00;;;1.67;;
81936;SDS011;71432;56.558;9.036;2023-10-31T14:13:32;6.10;;;1.98;;
81936;SDS011;71432;56.558;9.036;2023-10-31T14:15:58;7.57;;;1.20;;
81936;SDS011;71432;56.558;9.036;2023-10-31T14:18:23;6.47;;;1.43;;
81936;SDS011;71432;56.558;9.036;2023-10-31T14:20:48;6.37;;;1.63;;
81936;SDS011;71432;56.558;9.036;2023-10-31T14:23:14;3.40;;;1.20;;
81936;SDS011;71432;56.558;9.036;2023-10-31T14:25:39;7.90;;;1.48;;
81936;SDS011;71432;56.558;9.036;2023-10-31T14:28:04;4.93;;;1.55;;
81936;SDS011;71432;56.558;9.036;2023-10-31T14:30:31;9.60;;;1.40;;
81936;SDS011;71432;56.558;9.036;2023-10-31T14:32:59;4.13;;;1.08;;
81936;SDS011;71432;56.558;9.036;2023-10-31T14:35:24;3.60;;;1.10;;
81936;SDS011;71432;56.558;9.036;2023-10-31T14:37:49;4.03;;;1.10;;
81936;SDS011;71432;56.558;9.036;2023-10-31T14:40:15;4.80;;;0.50;;
81936;SDS011;71432;56.558;9.036;2023-10-31T14:42:40;5.37;;;1.20;;
81936;SDS011;71432;56.558;9.036;2023-10-31T14:45:05;4.85;;;1.40;;
81936;SDS011;71432;56.558;9.036;2023-10-31T14:47:31;15.70;;;3.72;;
81936;SDS011;71432;56.558;9.036;2023-10-31T14:49:56;5.83;;;1.17;;
81936;SDS011;71432;56.558;9.036;2023-10-31T14:52:22;3.53;;;0.90;;